This is the latest recevied weather packets stored in our database for station/object KC8YYF. If no packets are shown the sender has not sent any weather packets the latest 10 day(s).
| Time | Temp. | Humidity | Pressure | Rain* | Wind** | Luminosity | Snow |
|---|---|---|---|---|---|---|---|
| 1778027265 | 14.44° C | 98% | 1009 hPa | 0 mm | - | 0 W/m² | - |
| 1778026962 | 14.44° C | 98% | 1009.1 hPa | 0 mm | - | 0 W/m² | - |
| 1778026657 | 14.44° C | 98% | 1009.2 hPa | 0 mm | - | 0 W/m² | - |
| 1778026355 | 14.44° C | 98% | 1008.9 hPa | 0.51 mm | - | 0 W/m² | - |
| 1778026052 | 14.44° C | 97% | 1009.1 hPa | 1.27 mm | - | 0 W/m² | - |
| 1778025750 | 14.44° C | 97% | 1009.2 hPa | 0.51 mm | - | 0 W/m² | - |
| 1778025446 | 14.44° C | 97% | 1008.8 hPa | 0.51 mm | - | 0 W/m² | - |
| 1778025144 | 14.44° C | 97% | 1008.9 hPa | 0.51 mm | - | 0 W/m² | - |
| 1778024841 | 15° C | 97% | 1009 hPa | 0.51 mm | - | 0 W/m² | - |
| 1778024538 | 15° C | 96% | 1009.1 hPa | 0 mm | - | 0 W/m² | - |
| 1778024234 | 15° C | 96% | 1008.8 hPa | 0.51 mm | - | 1 W/m² | - |
| 1778023933 | 15° C | 95% | 1009 hPa | 0.51 mm | - | 2 W/m² | - |
| 1778023630 | 15° C | 93% | 1009.2 hPa | 0.51 mm | - | 1 W/m² | - |
| 1778023327 | 16.11° C | 89% | 1008.9 hPa | 0 mm | - | 1 W/m² | - |
| 1778023024 | 17.78° C | 78% | 1008.8 hPa | 0 mm | - | 0 W/m² | - |
| 1778022723 | 19.44° C | 67% | 1008.8 hPa | 0 mm | - | 0 W/m² | - |
| 1778022420 | 20° C | 64% | 1008.3 hPa | 0 mm | - | 2 W/m² | - |
| 1778022117 | 20° C | 65% | 1008.2 hPa | 0 mm | - | 4 W/m² | - |
| 1778021813 | 20° C | 65% | 1008 hPa | 0 mm | - | 10 W/m² | - |
| 1778021510 | 20° C | 65% | 1008.2 hPa | 0 mm | - | 17 W/m² | - |
| 1778021205 | 20.56° C | 65% | 1008.5 hPa | 0 mm | - | 17 W/m² | - |
| 1778020904 | 20.56° C | 65% | 1008.2 hPa | 0 mm | - | 17 W/m² | - |
| 1778020601 | 20.56° C | 64% | 1008.1 hPa | 0 mm | - | 31 W/m² | - |
| 1778020297 | 20.56° C | 65% | 1008.2 hPa | 0 mm | - | 35 W/m² | - |
| 1778019993 | 20.56° C | 64% | 1008.2 hPa | 0 mm | - | 33 W/m² | - |
* Rain latest hour (hover to see other rain measurements)
** Current wind speed in m/s (hover to see current wind gust speed)